Time;durP1;ratioP1;P1;durP2;ratioP2;P2;SDS_P1;SDS_P2;PMS_P1;PMS_P2;Temp;Humidity;BMP_temperature;BMP_pressure;BME280_temperature;BME280_humidity;BME280_pressure;Samples;Min_cycle;Max_cycle;Signal;HPM_P1;HPM_P2
2022/05/07 00:00:23;;;;;;;14.95;9.50;;;;;;;11.78;81.26;101543.03;5083430;28;20392;-78
2022/05/07 00:02:49;;;;;;;10.65;8.60;;;;;;;11.77;81.47;101546.09;5100210;28;20106;-78
2022/05/07 00:05:15;;;;;;;12.00;9.13;;;;;;;11.74;81.04;101547.47;5083632;28;20051;-78
2022/05/07 00:07:40;;;;;;;13.00;10.32;;;;;;;11.70;82.10;101548.31;5097554;28;20027;-78
2022/05/07 00:10:06;;;;;;;11.32;8.63;;;;;;;11.68;81.32;101543.03;5118426;28;20035;-78
2022/05/07 00:12:32;;;;;;;12.18;8.98;;;;;;;11.66;81.62;101539.69;5100278;28;20035;-77
2022/05/07 00:14:57;;;;;;;11.18;8.32;;;;;;;11.62;81.38;101539.41;5114112;28;20028;-78
2022/05/07 00:20:09;;;;;;;12.13;9.15;;;;;;;11.54;81.88;101539.13;5117424;28;20049;-77
2022/05/07 00:22:34;;;;;;;10.32;8.88;;;;;;;11.47;82.05;101538.53;5101470;28;20024;-77
2022/05/07 00:25:00;;;;;;;14.82;10.13;;;;;;;11.47;82.53;101538.53;5082531;28;20380;-78
2022/05/07 00:27:25;;;;;;;14.10;10.48;;;;;;;11.43;83.87;101543.81;5083192;28;20040;-78
2022/05/07 00:29:51;;;;;;;10.63;9.30;;;;;;;11.39;83.63;101537.97;5100048;28;20028;-78
2022/05/07 00:32:17;;;;;;;13.82;11.10;;;;;;;11.39;84.86;101540.75;5118126;28;20031;-78
2022/05/07 00:34:42;;;;;;;17.75;12.13;;;;;;;11.35;85.88;101530.44;5117978;28;20038;-77
2022/05/07 00:37:08;;;;;;;13.98;10.38;;;;;;;11.33;85.19;101527.94;5099580;28;20020;-78
2022/05/07 00:39:33;;;;;;;16.17;11.85;;;;;;;11.33;85.77;101532.66;5099453;28;20081;-78
2022/05/07 00:42:05;;;;;;;12.43;10.48;;;;;;;11.34;85.92;101534.34;5118124;28;20043;-78
2022/05/07 00:44:31;;;;;;;13.52;9.70;;;;;;;11.34;85.13;101529.63;5117733;28;20081;-77
2022/05/07 00:47:25;;;;;;;12.05;9.88;;;;;;;11.38;85.12;101521.56;5116836;28;20024;-77
2022/05/07 00:49:51;;;;;;;;;;;;;;;11.38;86.44;101522.38;5100179;28;20100;-78
2022/05/07 00:52:18;;;;;;;15.73;12.10;;;;;;;11.33;87.84;101519.56;5095292;28;19912;-78
2022/05/07 00:54:44;;;;;;;14.05;10.50;;;;;;;11.41;85.22;101518.22;5121525;27;20034;-78
2022/05/07 00:57:10;;;;;;;15.48;10.70;;;;;;;11.44;84.69;101508.50;5113012;28;20031;-78
2022/05/07 00:59:35;;;;;;;15.65;10.50;;;;;;;11.46;84.68;101511.84;5117039;28;20395;-77
2022/05/07 01:02:01;;;;;;;14.18;10.82;;;;;;;11.42;87.31;101514.31;5117571;28;20031;-78
2022/05/07 01:04:26;;;;;;;11.93;9.75;;;;;;;11.39;86.42;101504.59;5116940;28;20031;-78
2022/05/07 01:06:52;;;;;;;17.42;12.48;;;;;;;11.36;89.18;101505.13;5098203;28;20555;-77
2022/05/07 01:09:18;;;;;;;12.68;10.25;;;;;;;11.40;86.20;101505.44;5046888;28;20384;-77
2022/05/07 01:11:43;;;;;;;12.85;10.68;;;;;;;11.40;86.50;101500.69;5099327;28;20043;-78
2022/05/07 01:14:09;;;;;;;15.27;10.57;;;;;;;11.41;86.37;101494.00;5082236;28;20035;-78
2022/05/07 01:16:34;;;;;;;12.80;9.85;;;;;;;11.44;85.72;101487.06;5082042;28;20036;-77
2022/05/07 01:19:00;;;;;;;12.15;9.15;;;;;;;11.48;84.91;101493.75;5099393;28;20038;-78
2022/05/07 01:21:27;;;;;;;11.80;10.40;;;;;;;11.47;86.45;101483.72;5099189;28;20419;-78
2022/05/07 01:23:52;;;;;;;12.77;9.82;;;;;;;11.52;85.57;101477.34;5098856;28;20026;-78
2022/05/07 01:26:20;;;;;;;12.02;9.85;;;;;;;11.51;85.38;101484.03;5117015;28;20413;-78
2022/05/07 01:28:46;;;;;;;13.65;11.27;;;;;;;11.47;87.27;101477.34;5099292;28;20432;-78
2022/05/07 01:31:11;;;;;;;14.15;10.98;;;;;;;11.51;85.72;101481.25;5082403;28;20037;-78
2022/05/07 01:33:38;;;;;;;12.95;9.57;;;;;;;11.53;85.14;101481.78;5098583;28;20395;-78
2022/05/07 01:36:07;;;;;;;12.02;9.35;;;;;;;11.52;86.24;101480.94;5098579;28;20031;-77
2022/05/07 01:38:34;;;;;;;13.82;10.38;;;;;;;11.50;85.65;101474.81;5098648;28;20047;-77
2022/05/07 01:40:59;;;;;;;16.67;12.05;;;;;;;11.46;86.82;101482.06;5098637;28;20105;-78
2022/05/07 01:43:27;;;;;;;12.25;9.48;;;;;;;11.49;85.71;101484.28;5065335;28;20031;-77
2022/05/07 01:45:54;;;;;;;10.10;8.77;;;;;;;11.48;85.95;101479.00;5085945;28;20416;-77
2022/05/07 01:48:20;;;;;;;12.00;10.15;;;;;;;11.46;85.44;101479.28;5077755;28;20031;-77
2022/05/07 01:50:46;;;;;;;10.45;9.02;;;;;;;11.47;85.10;101475.38;5116567;28;20383;-78
2022/05/07 01:53:12;;;;;;;10.75;8.68;;;;;;;11.49;84.93;101475.13;5081277;28;20027;-77
2022/05/07 01:55:38;;;;;;;14.98;10.82;;;;;;;11.46;85.45;101468.16;5097042;28;20028;-78
2022/05/07 01:58:04;;;;;;;10.65;8.75;;;;;;;11.46;85.30;101470.94;5061437;28;20046;-77
2022/05/07 02:00:30;;;;;;;14.02;9.30;;;;;;;11.48;85.72;101470.66;5076768;28;20078;-77
2022/05/07 02:02:57;;;;;;;14.30;11.00;;;;;;;11.50;86.65;101465.66;5077955;28;20036;-77
2022/05/07 02:05:24;;;;;;;10.10;8.80;;;;;;;11.48;86.20;101463.16;5077929;28;20054;-77
2022/05/07 02:07:49;;;;;;;13.93;11.02;;;;;;;11.44;87.61;101463.97;5095126;28;20122;-78
2022/05/07 02:10:15;;;;;;;13.55;9.75;;;;;;;11.47;86.44;101455.06;5095833;28;20032;-78
2022/05/07 02:12:40;;;;;;;12.77;9.80;;;;;;;11.51;85.18;101459.00;5061194;28;20027;-77
2022/05/07 02:15:06;;;;;;;11.02;7.93;;;;;;;11.50;84.39;101460.91;5095442;28;20024;-78
2022/05/07 02:17:32;;;;;;;10.52;8.80;;;;;;;11.53;85.15;101459.53;5095570;28;20040;-77
2022/05/07 02:19:57;;;;;;;10.73;8.35;;;;;;;11.53;84.73;101453.97;5077622;28;20032;-78
2022/05/07 02:22:23;;;;;;;11.98;9.10;;;;;;;11.54;84.54;101461.22;5095561;28;20032;-77
2022/05/07 02:24:50;;;;;;;12.90;9.70;;;;;;;11.52;84.73;101450.34;5059739;28;20031;-78
2022/05/07 02:27:15;;;;;;;12.95;9.90;;;;;;;11.55;85.21;101460.94;5077810;28;20032;-78
2022/05/07 02:29:41;;;;;;;13.50;9.70;;;;;;;11.54;84.23;101456.47;5054211;28;20039;-77
2022/05/07 02:32:07;;;;;;;11.90;9.05;;;;;;;11.55;84.16;101452.56;5077650;28;20043;-77
2022/05/07 02:34:32;;;;;;;12.20;9.48;;;;;;;11.58;84.71;101457.59;5060700;28;20162;-78
2022/05/07 02:36:58;;;;;;;11.68;8.68;;;;;;;11.60;84.57;101448.97;5060664;28;20024;-77
2022/05/07 02:39:24;;;;;;;10.77;8.63;;;;;;;11.60;83.86;101455.38;5095270;28;20036;-78
2022/05/07 02:44:33;;;;;;;13.05;9.75;;;;;;;11.55;86.47;101451.75;5093634;28;20101;-77
2022/05/07 02:46:59;;;;;;;12.43;9.90;;;;;;;11.55;85.78;101446.19;5095392;28;20024;-78
2022/05/07 02:49:24;;;;;;;12.38;9.18;;;;;;;11.57;85.27;101446.75;5072838;28;20029;-78
2022/05/07 02:51:50;;;;;;;12.95;8.98;;;;;;;11.57;85.04;101447.56;5047165;28;20122;-77
2022/05/07 02:54:15;;;;;;;10.77;8.90;;;;;;;11.58;85.03;101445.63;5060109;28;20480;-78
2022/05/07 02:56:41;;;;;;;12.43;9.48;;;;;;;11.61;84.91;101447.84;5070786;28;20052;-78
2022/05/07 02:59:06;;;;;;;14.10;10.77;;;;;;;11.60;86.41;101443.41;5101864;28;20024;-78
2022/05/07 03:01:32;;;;;;;12.43;8.77;;;;;;;11.59;85.27;101453.72;5114283;28;20035;-78
2022/05/07 03:03:57;;;;;;;10.13;8.88;;;;;;;11.60;85.22;101451.75;5115433;28;20027;-77
2022/05/07 03:06:23;;;;;;;12.65;10.13;;;;;;;11.60;86.11;101454.53;5097302;28;20027;-77
2022/05/07 03:08:48;;;;;;;12.73;10.13;;;;;;;11.65;86.13;101456.50;5096413;28;20024;-77
2022/05/07 03:11:14;;;;;;;15.48;11.35;;;;;;;11.63;88.23;101460.38;5099512;28;20027;-77
2022/05/07 03:13:40;;;;;;;14.80;11.02;;;;;;;11.61;87.05;101464.53;5101212;28;20028;-77
2022/05/07 03:16:06;;;;;;;13.45;9.95;;;;;;;11.63;87.09;101453.97;5084389;28;20457;-77
2022/05/07 03:18:32;;;;;;;13.02;9.52;;;;;;;11.63;86.27;101457.59;5123695;27;20063;-78
2022/05/07 03:20:58;;;;;;;12.73;9.75;;;;;;;11.66;85.75;101453.41;5101228;28;20039;-78
2022/05/07 03:23:25;;;;;;;13.70;9.70;;;;;;;11.66;86.70;101458.97;5119092;28;20472;-78
2022/05/07 03:25:51;;;;;;;10.43;8.82;;;;;;;11.66;85.51;101447.84;5117681;28;20050;-78
2022/05/07 03:28:16;;;;;;;15.32;9.20;;;;;;;11.68;85.85;101448.41;5101066;28;20368;-78
2022/05/07 03:30:42;;;;;;;10.88;8.93;;;;;;;11.68;86.31;101456.75;5119246;28;20024;-78
2022/05/07 03:33:07;;;;;;;12.45;9.15;;;;;;;11.67;86.57;101457.84;5119164;28;20032;-78
2022/05/07 03:35:33;;;;;;;12.20;9.43;;;;;;;11.70;85.99;101443.41;5118284;28;20031;-78
2022/05/07 03:37:58;;;;;;;11.70;9.85;;;;;;;11.70;86.56;101448.97;5083840;28;20031;-78
2022/05/07 03:40:24;;;;;;;13.93;11.05;;;;;;;11.67;87.70;101443.94;5100897;28;20019;-78
2022/05/07 03:42:49;;;;;;;13.55;10.23;;;;;;;11.69;87.41;101441.72;5100596;28;20028;-78
2022/05/07 03:45:15;;;;;;;10.88;8.82;;;;;;;11.71;86.27;101450.63;5100557;28;20030;-78
2022/05/07 03:47:40;;;;;;;11.30;9.07;;;;;;;11.72;86.35;101438.38;5118838;28;20031;-78
2022/05/07 03:50:06;;;;;;;11.70;9.40;;;;;;;11.72;86.85;101448.69;5118512;28;20039;-78
2022/05/07 03:55:16;;;;;;;11.52;9.85;;;;;;;11.70;86.75;101440.63;5086317;28;20042;-78
2022/05/07 03:57:41;;;;;;;13.43;9.95;;;;;;;11.72;86.58;101435.59;5118250;28;20482;-78
2022/05/07 04:00:08;;;;;;;11.05;9.27;;;;;;;11.71;86.75;101428.38;5097957;28;20036;-78
2022/05/07 04:02:35;;;;;;;12.32;8.73;;;;;;;11.73;86.19;101433.66;5118465;28;20028;-78
2022/05/07 04:05:02;;;;;;;13.82;9.23;;;;;;;11.73;86.62;101422.50;5118485;28;20415;-78
2022/05/07 04:07:27;;;;;;;12.95;9.52;;;;;;;11.74;86.24;101433.38;5081796;28;20028;-78
2022/05/07 04:09:54;;;;;;;12.05;9.73;;;;;;;11.75;87.19;101432.25;5050949;28;20038;-77
2022/05/07 04:12:20;;;;;;;12.93;9.57;;;;;;;11.74;87.14;101432.56;5057499;28;20157;-77
2022/05/07 04:14:46;;;;;;;14.27;10.20;;;;;;;11.73;87.88;101439.22;5082733;28;20036;-78
2022/05/07 04:17:11;;;;;;;16.80;11.65;;;;;;;11.71;89.87;101436.72;5078901;28;20062;-78
2022/05/07 04:19:37;;;;;;;14.65;11.52;;;;;;;11.74;88.64;101430.59;5062822;28;20066;-78
2022/05/07 04:22:02;;;;;;;17.13;11.95;;;;;;;11.72;90.10;101430.03;5079543;28;20058;-78
2022/05/07 04:24:28;;;;;;;17.35;13.05;;;;;;;11.68;92.56;101431.72;5117052;28;20507;-78
2022/05/07 04:26:54;;;;;;;17.02;11.70;;;;;;;11.69;90.67;101424.19;5099922;28;20030;-78
2022/05/07 04:29:20;;;;;;;14.85;11.27;;;;;;;11.71;89.65;101420.03;5063162;28;20417;-78
2022/05/07 04:31:46;;;;;;;14.88;10.18;;;;;;;11.73;88.65;101415.03;5099862;28;20027;-77
2022/05/07 04:34:11;;;;;;;15.30;10.88;;;;;;;11.72;89.26;101415.28;5099974;28;20039;-77
2022/05/07 04:36:37;;;;;;;17.65;11.32;;;;;;;11.73;89.61;101414.16;5117619;28;20081;-77
2022/05/07 04:39:03;;;;;;;16.33;10.43;;;;;;;11.74;88.64;101413.06;5117858;28;20051;-77
2022/05/07 04:41:28;;;;;;;13.13;10.15;;;;;;;11.76;88.90;101419.19;5117117;28;20035;-78
2022/05/07 04:43:54;;;;;;;13.25;10.68;;;;;;;11.76;88.45;101416.41;5099713;28;20024;-77
2022/05/07 04:46:19;;;;;;;12.90;10.05;;;;;;;11.79;88.12;101413.06;5117641;28;20523;-77
2022/05/07 04:48:46;;;;;;;13.63;10.02;;;;;;;11.79;88.28;101418.63;5099768;28;20028;-77
2022/05/07 04:51:12;;;;;;;12.48;9.88;;;;;;;11.78;87.95;101417.81;5117325;28;20024;-78
2022/05/07 04:53:37;;;;;;;14.25;9.52;;;;;;;11.81;88.36;101416.38;5083134;28;20076;-77
2022/05/07 04:56:03;;;;;;;12.73;9.43;;;;;;;11.81;87.48;101417.25;5099228;28;20055;-78
2022/05/07 04:58:28;;;;;;;12.68;9.55;;;;;;;11.82;87.64;101430.03;5117489;28;20471;-78
2022/05/07 05:00:54;;;;;;;11.90;9.18;;;;;;;11.80;87.44;101429.47;5064919;28;20396;-77
2022/05/07 05:03:19;;;;;;;12.07;9.35;;;;;;;11.80;88.08;101429.47;5117544;28;20388;-77
2022/05/07 05:05:45;;;;;;;14.43;9.85;;;;;;;11.82;88.17;101427.25;5099100;28;20057;-78
2022/05/07 05:08:11;;;;;;;13.23;9.63;;;;;;;11.82;88.13;101432.81;5082319;28;20031;-78
2022/05/07 05:10:36;;;;;;;19.25;10.85;;;;;;;11.84;88.81;101433.38;5117291;28;20050;-77
2022/05/07 05:13:02;;;;;;;14.02;9.70;;;;;;;11.83;88.86;101436.44;5099122;28;20026;-78
2022/05/07 05:15:28;;;;;;;15.73;11.55;;;;;;;11.82;89.26;101438.38;5082370;28;20077;-78
2022/05/07 05:17:53;;;;;;;16.13;10.93;;;;;;;11.83;88.75;101437.25;5099105;28;20732;-78
2022/05/07 05:20:19;;;;;;;16.25;10.77;;;;;;;11.83;89.30;101442.81;5116949;28;20020;-78
2022/05/07 05:22:48;;;;;;;14.60;10.50;;;;;;;11.83;89.36;101442.81;5065492;28;20028;-78
2022/05/07 05:25:14;;;;;;;15.35;10.40;;;;;;;11.85;89.96;101440.63;5065320;28;20039;-78
2022/05/07 05:27:40;;;;;;;15.65;11.23;;;;;;;11.85;90.06;101440.63;5116957;28;20024;-78
2022/05/07 05:30:06;;;;;;;16.95;11.85;;;;;;;11.86;91.33;101441.47;5098963;28;20560;-78
2022/05/07 05:32:31;;;;;;;15.57;11.32;;;;;;;11.89;91.89;101437.28;5082239;28;20031;-78
2022/05/07 05:34:57;;;;;;;14.05;9.68;;;;;;;11.90;90.88;101445.38;5061232;28;20035;-78
2022/05/07 05:37:22;;;;;;;17.60;12.15;;;;;;;11.92;93.09;101447.84;5097968;28;20035;-78
2022/05/07 05:39:48;;;;;;;14.65;10.95;;;;;;;11.95;95.28;101444.50;5097986;28;20046;-78
2022/05/07 05:42:13;;;;;;;18.52;12.80;;;;;;;12.01;95.85;101449.81;5098718;28;20076;-77
2022/05/07 05:44:39;;;;;;;20.83;11.23;;;;;;;12.06;95.23;101457.31;5116608;28;20106;-78
2022/05/07 05:47:08;;;;;;;17.50;11.18;;;;;;;12.13;93.92;101455.06;5098485;28;20031;-78
2022/05/07 05:49:34;;;;;;;14.60;10.95;;;;;;;12.18;95.50;101457.84;5098492;28;20034;-77
2022/05/07 05:52:04;;;;;;;16.92;11.10;;;;;;;12.28;94.14;101456.97;5081490;28;20031;-77
2022/05/07 05:54:29;;;;;;;12.23;9.48;;;;;;;12.36;91.98;101447.22;5094167;28;20103;-78
2022/05/07 05:56:55;;;;;;;14.80;10.63;;;;;;;12.45;92.45;101453.88;5081297;28;20109;-77
2022/05/07 05:59:21;;;;;;;14.38;9.55;;;;;;;12.55;91.52;101448.25;5113580;28;20039;-77
2022/05/07 06:01:47;;;;;;;15.73;10.88;;;;;;;12.64;91.36;101449.34;5080182;28;20464;-78
2022/05/07 06:04:14;;;;;;;16.90;11.20;;;;;;;12.74;90.99;101445.69;5098095;28;20035;-78
2022/05/07 06:06:39;;;;;;;17.85;10.25;;;;;;;12.84;91.41;101450.34;5098457;28;20386;-77
2022/05/07 06:09:05;;;;;;;14.10;10.30;;;;;;;12.92;91.09;101452.53;5060491;28;20040;-77
2022/05/07 06:11:30;;;;;;;14.07;9.80;;;;;;;12.97;90.51;101450.56;5116503;28;20036;-78
2022/05/07 06:13:56;;;;;;;17.65;11.20;;;;;;;13.03;90.23;101451.38;5064453;28;20031;-78
2022/05/07 06:16:21;;;;;;;17.20;12.35;;;;;;;13.11;91.08;101450.75;5098118;28;20507;-78
2022/05/07 06:18:47;;;;;;;18.48;11.23;;;;;;;13.15;92.51;101460.25;5116332;28;20020;-78
2022/05/07 06:21:12;;;;;;;15.23;11.15;;;;;;;13.20;91.32;101453.78;5097918;28;20078;-77
2022/05/07 06:23:38;;;;;;;16.05;10.43;;;;;;;13.28;90.36;101455.16;5062874;28;20046;-78
2022/05/07 06:28:47;;;;;;;17.38;10.45;;;;;;;13.41;90.71;101462.88;5100496;28;20039;-78
2022/05/07 06:31:12;;;;;;;16.42;10.48;;;;;;;13.43;91.46;101466.22;5116225;28;20024;-78
2022/05/07 06:33:41;;;;;;;17.73;11.25;;;;;;;13.49;92.19;101461.44;5062919;28;20032;-78
2022/05/07 06:36:07;;;;;;;15.38;9.90;;;;;;;13.55;90.56;101457.47;5111576;28;20051;-78
2022/05/07 06:38:33;;;;;;;14.55;10.05;;;;;;;13.62;89.93;101467.19;5115155;28;20542;-78
2022/05/07 06:41:02;;;;;;;13.30;9.63;;;;;;;13.67;90.47;101465.47;5115735;28;20027;-78
2022/05/07 06:43:31;;;;;;;14.60;8.95;;;;;;;13.73;90.02;101472.69;5098481;28;20062;-78
2022/05/07 06:45:57;;;;;;;11.57;8.88;;;;;;;13.75;89.79;101465.69;5065688;28;20031;-78
2022/05/07 06:48:23;;;;;;;14.27;9.50;;;;;;;13.75;90.83;101462.06;5120416;28;20027;-78
2022/05/07 06:50:49;;;;;;;12.95;9.35;;;;;;;13.80;90.23;101462.84;5085319;28;20154;-78
2022/05/07 06:53:14;;;;;;;12.15;9.13;;;;;;;13.81;90.52;101469.25;5120159;28;20059;-78
2022/05/07 06:55:55;;;;;;;15.20;10.25;;;;;;;13.82;90.53;101463.41;5066378;28;20031;-78
2022/05/07 06:58:30;;;;;;;15.50;9.88;;;;;;;13.83;90.22;101464.22;5064957;28;20485;-77
2022/05/07 07:00:57;;;;;;;13.43;9.20;;;;;;;13.86;89.89;101466.44;5097145;28;20027;-77
2022/05/07 07:03:23;;;;;;;13.77;8.88;;;;;;;13.86;90.21;101472.00;5099114;28;20047;-77
2022/05/07 07:05:50;;;;;;;10.63;8.30;;;;;;;13.88;90.50;101466.97;5064488;28;20032;-78
2022/05/07 07:08:16;;;;;;;14.38;8.38;;;;;;;13.85;90.88;101461.97;5061796;28;20069;-78
2022/05/07 07:10:42;;;;;;;12.75;7.82;;;;;;;13.90;90.40;101467.53;5099025;28;20484;-78
2022/05/07 07:13:07;;;;;;;15.68;8.07;;;;;;;13.94;89.86;101474.16;5099163;28;20028;-78
2022/05/07 07:15:33;;;;;;;11.23;7.63;;;;;;;13.96;89.26;101466.34;5095434;28;20708;-78
2022/05/07 07:17:59;;;;;;;9.20;5.97;;;;;;;14.02;89.05;101467.13;5064588;28;20123;-78
2022/05/07 07:20:24;;;;;;;10.77;6.60;;;;;;;14.07;88.74;101456.75;5081319;28;20042;-77
2022/05/07 07:22:50;;;;;;;8.52;5.80;;;;;;;14.15;87.75;101457.19;5064604;28;20028;-77
2022/05/07 07:25:15;;;;;;;8.52;6.55;;;;;;;14.17;87.72;101461.38;5050002;28;20562;-77
2022/05/07 07:27:41;;;;;;;7.72;5.90;;;;;;;14.21;87.98;101461.63;5099055;28;20036;-77
2022/05/07 07:30:07;;;;;;;8.73;6.65;;;;;;;14.27;88.25;101466.03;5047733;28;20024;-77
2022/05/07 07:32:32;;;;;;;7.95;5.97;;;;;;;14.33;88.54;101469.59;5064234;28;20044;-78
2022/05/07 07:34:58;;;;;;;11.13;6.40;;;;;;;14.33;88.50;101464.00;5047423;28;20051;-77
2022/05/07 07:37:23;;;;;;;8.80;6.20;;;;;;;14.39;88.06;101474.81;5098189;28;20035;-77
2022/05/07 07:39:49;;;;;;;6.80;5.30;;;;;;;14.40;88.71;101473.72;5080883;28;20040;-77
2022/05/07 07:42:16;;;;;;;8.75;4.55;;;;;;;14.46;87.36;101469.72;5028176;28;20032;-77
2022/05/07 07:44:41;;;;;;;6.65;4.35;;;;;;;14.50;86.78;101472.75;5061258;28;20050;-77
2022/05/07 07:49:51;;;;;;;8.75;4.15;;;;;;;14.71;86.31;101482.59;5080439;28;20024;-78
2022/05/07 07:52:17;;;;;;;6.10;3.80;;;;;;;14.85;87.05;101487.44;5051772;28;20085;-78
2022/05/07 07:54:42;;;;;;;8.20;3.70;;;;;;;15.01;85.52;101485.28;5047272;28;20436;-78
2022/05/07 07:57:08;;;;;;;6.72;3.53;;;;;;;15.16;85.33;101487.91;5093575;28;20712;-78
2022/05/07 07:59:34;;;;;;;5.15;3.40;;;;;;;15.30;83.64;101477.63;5118271;27;20028;-78
2022/05/07 08:01:59;;;;;;;6.70;3.13;;;;;;;15.42;82.48;101479.94;5100385;28;20035;-78
2022/05/07 08:04:27;;;;;;;5.15;3.30;;;;;;;15.54;82.58;101482.28;5100416;28;20028;-78
2022/05/07 08:12:21;;;;;;;6.90;3.83;;;;;;;15.89;81.53;101477.28;5116125;28;20519;-78
2022/05/07 08:14:47;;;;;;;5.85;3.85;;;;;;;15.95;80.23;101479.66;5066693;28;20035;-78
2022/05/07 08:17:14;;;;;;;7.03;3.97;;;;;;;16.03;79.85;101484.56;5083350;28;20036;-72
2022/05/07 08:19:40;;;;;;;6.80;3.67;;;;;;;16.03;79.72;101478.97;5083158;28;20039;-73
2022/05/07 08:22:05;;;;;;;5.60;3.67;;;;;;;16.03;78.95;101486.56;5118081;28;20407;-73
2022/05/07 08:24:31;;;;;;;6.28;3.50;;;;;;;16.06;79.22;101483.97;5099881;28;20031;-73
2022/05/07 08:26:56;;;;;;;5.20;3.60;;;;;;;16.12;79.02;101492.28;5115570;28;20024;-73
2022/05/07 08:29:23;;;;;;;8.35;3.70;;;;;;;16.13;78.49;101483.56;5098789;28;20034;-73
2022/05/07 08:31:50;;;;;;;6.10;3.33;;;;;;;16.20;78.44;101488.75;5121263;27;20037;-72
2022/05/07 08:34:15;;;;;;;11.02;3.50;;;;;;;16.28;78.02;101485.25;5118481;28;20031;-72
2022/05/07 08:36:41;;;;;;;6.28;3.58;;;;;;;16.32;77.56;101486.28;5117917;28;20081;-73
2022/05/07 08:39:06;;;;;;;5.85;3.03;;;;;;;16.40;77.05;101470.72;5117606;28;20054;-73
2022/05/07 08:41:32;;;;;;;6.70;3.60;;;;;;;16.47;76.71;101477.59;5118257;28;20031;-72
2022/05/07 08:43:57;;;;;;;6.65;3.50;;;;;;;16.50;76.97;101479.78;5118495;28;20534;-72
2022/05/07 08:46:24;;;;;;;6.88;3.40;;;;;;;16.56;76.71;101474.91;5099763;28;20031;-72
2022/05/07 08:48:51;;;;;;;4.47;2.92;;;;;;;16.60;76.17;101473.13;5117419;28;20042;-72
2022/05/07 08:51:18;;;;;;;7.90;3.10;;;;;;;16.68;75.74;101472.38;5117821;28;20031;-73
2022/05/07 08:53:44;;;;;;;5.97;3.08;;;;;;;16.77;75.82;101480.09;5096690;28;20038;-73
2022/05/07 08:56:10;;;;;;;8.07;3.75;;;;;;;16.87;76.59;101463.91;5065915;28;20103;-75
2022/05/07 08:58:36;;;;;;;6.18;2.65;;;;;;;17.04;74.68;101459.59;5117821;28;20046;-73
2022/05/07 09:01:01;;;;;;;7.95;3.30;;;;;;;17.23;74.86;101459.47;5098060;28;20028;-73
2022/05/07 09:03:40;;;;;;;6.43;2.90;;;;;;;17.42;73.97;101451.72;5099763;28;20028;-73
2022/05/07 09:06:26;;;;;;;5.07;2.90;;;;;;;17.65;72.14;101455.34;5082835;28;20020;-71
2022/05/07 09:08:53;;;;;;;5.82;2.90;;;;;;;17.85;71.49;101465.28;5079006;28;20522;-70
2022/05/07 09:11:19;;;;;;;6.07;2.40;;;;;;;17.99;70.59;101457.59;5099258;28;20030;-71
2022/05/07 09:13:46;;;;;;;3.85;2.10;;;;;;;18.08;69.67;101457.66;5097867;28;20047;-69
2022/05/07 09:16:11;;;;;;;2.92;1.70;;;;;;;18.24;69.05;101460.88;5065975;28;20031;-70
2022/05/07 09:18:37;;;;;;;2.80;2.20;;;;;;;18.29;68.00;101463.56;5066963;27;20036;-70
2022/05/07 09:21:16;;;;;;;3.72;1.80;;;;;;;18.36;66.64;101455.50;5082355;28;20106;-70
2022/05/07 09:23:56;;;;;;;2.60;1.67;;;;;;;18.47;66.73;101459.69;5082939;27;20031;-71
2022/05/07 09:26:26;;;;;;;6.28;1.80;;;;;;;18.44;66.12;101456.66;5079717;28;20028;-70
2022/05/07 09:28:51;;;;;;;4.53;1.92;;;;;;;18.44;65.98;101468.78;5082433;28;20051;-70
2022/05/07 09:31:24;;;;;;;3.97;1.67;;;;;;;18.46;66.30;101466.44;5048763;28;20038;-69
2022/05/07 09:33:50;;;;;;;4.32;1.85;;;;;;;18.41;66.35;101460.94;5095207;28;20496;-71
2022/05/07 09:36:15;;;;;;;2.47;1.80;;;;;;;18.39;66.82;101463.28;5082818;27;20062;-70
2022/05/07 09:38:41;;;;;;;3.25;1.70;;;;;;;18.47;66.55;101456.88;5085172;28;20495;-71
2022/05/07 09:41:06;;;;;;;3.85;1.80;;;;;;;18.46;66.45;101465.63;5045366;28;20438;-70
2022/05/07 09:43:32;;;;;;;3.60;1.80;;;;;;;18.50;66.43;101458.19;5081775;28;20034;-70
2022/05/07 09:45:58;;;;;;;3.53;1.75;;;;;;;18.52;66.51;101462.31;5081933;28;20031;-71
2022/05/07 09:48:23;;;;;;;2.90;2.05;;;;;;;18.50;66.93;101461.03;5082446;28;20031;-71
2022/05/07 09:50:50;;;;;;;3.17;2.03;;;;;;;18.42;66.14;101453.38;5083003;28;20388;-71
2022/05/07 09:58:46;;;;;;;4.78;1.73;;;;;;;18.45;66.11;101447.91;5087048;28;20697;-72
2022/05/07 10:01:20;;;;;;;2.70;1.52;;;;;;;18.50;65.22;101444.97;5096348;28;20062;-70
2022/05/07 10:03:51;;;;;;;4.45;2.10;;;;;;;18.50;65.53;101447.78;5116562;28;20069;-70
2022/05/07 10:06:16;;;;;;;4.28;1.83;;;;;;;18.60;65.53;101448.63;5116160;28;20400;-71
2022/05/07 10:09:00;;;;;;;6.78;2.05;;;;;;;18.72;65.56;101441.22;5115395;28;20035;-71
2022/05/07 10:11:26;;;;;;;5.57;1.60;;;;;;;18.87;65.43;101439.16;5098418;28;20422;-71
2022/05/07 10:13:55;;;;;;;4.32;2.00;;;;;;;18.95;65.03;101435.53;5115918;28;20024;-71
2022/05/07 10:16:24;;;;;;;4.78;1.80;;;;;;;19.09;64.69;101438.19;5111926;28;20035;-70
2022/05/07 10:18:49;;;;;;;4.25;1.50;;;;;;;19.20;64.12;101436.72;5082153;28;20106;-70
2022/05/07 10:21:18;;;;;;;5.75;1.70;;;;;;;19.30;64.10;101430.72;5077166;28;20047;-70
2022/05/07 10:23:53;;;;;;;3.85;1.60;;;;;;;19.34;63.29;101431.75;5078397;28;20062;-71
2022/05/07 10:26:19;;;;;;;3.38;1.80;;;;;;;19.41;63.36;101426.41;5093914;28;20522;-70
2022/05/07 10:28:45;;;;;;;4.43;1.70;;;;;;;19.55;63.07;101431.06;5080251;28;20035;-70
2022/05/07 10:31:23;;;;;;;4.45;1.90;;;;;;;19.67;62.87;101434.06;5098197;28;20055;-70
2022/05/07 10:33:49;;;;;;;2.95;1.60;;;;;;;19.75;62.46;101426.75;5098983;28;20085;-70
2022/05/07 10:36:15;;;;;;;2.75;1.55;;;;;;;19.96;61.56;101424.88;5115833;28;20106;-71
2022/05/07 10:38:42;;;;;;;3.47;1.77;;;;;;;20.14;61.08;101425.66;5097763;28;20039;-71
2022/05/07 10:41:14;;;;;;;1.80;1.40;;;;;;;20.30;60.97;101421.13;5079618;28;20023;-71
2022/05/07 10:44:07;;;;;;;2.13;1.92;;;;;;;20.47;58.65;101422.22;5097895;28;20038;-70
2022/05/07 10:46:42;;;;;;;3.28;2.55;;;;;;;20.65;58.57;101426.63;5096720;28;20494;-71
2022/05/07 10:49:07;;;;;;;5.07;2.22;;;;;;;20.83;58.15;101418.88;5081507;28;20024;-72
2022/05/07 10:51:37;;;;;;;4.05;2.05;;;;;;;20.97;58.06;101425.09;5047569;28;20036;-71
2022/05/07 10:54:24;;;;;;;3.30;2.15;;;;;;;21.14;57.94;101417.66;5115645;28;20613;-72
2022/05/07 10:56:54;;;;;;;2.55;1.70;;;;;;;21.28;56.76;101426.69;5095577;28;20077;-71
2022/05/07 10:59:20;;;;;;;4.15;1.73;;;;;;;21.42;56.60;101412.31;5095351;28;20035;-71
2022/05/07 11:01:46;;;;;;;3.33;1.70;;;;;;;21.56;57.29;101403.53;5080668;28;20031;-71
2022/05/07 11:04:13;;;;;;;4.78;1.75;;;;;;;21.64;55.33;101406.28;5052503;28;20032;-71
2022/05/07 11:06:49;;;;;;;3.70;0.98;;;;;;;21.74;55.00;101404.22;5098112;28;20127;-71
2022/05/07 11:09:25;;;;;;;1.77;1.00;;;;;;;21.85;54.66;101400.59;5096361;28;20107;-71
2022/05/07 11:11:52;;;;;;;2.25;0.95;;;;;;;21.81;53.38;101401.63;5078570;28;20517;-71
2022/05/07 11:14:32;;;;;;;3.30;1.10;;;;;;;21.78;52.59;101394.66;5065289;28;20414;-71
2022/05/07 11:17:01;;;;;;;3.05;1.10;;;;;;;21.88;52.63;101384.09;5080715;28;20407;-71
2022/05/07 11:19:34;;;;;;;3.38;1.15;;;;;;;21.88;53.20;101384.94;5079510;28;20023;-71
2022/05/07 11:22:02;;;;;;;;;;;;;;;21.91;53.56;101384.22;5097801;28;20033;-71
2022/05/07 11:24:29;;;;;;;2.10;1.00;;;;;;;21.96;53.43;101381.16;5063130;28;19912;-71
2022/05/07 11:26:56;;;;;;;1.40;1.05;;;;;;;22.09;52.40;101382.00;5053006;28;20066;-71
2022/05/07 11:29:21;;;;;;;2.15;1.15;;;;;;;22.19;52.56;101373.09;5047580;28;20035;-71
2022/05/07 11:32:00;;;;;;;2.85;1.20;;;;;;;22.38;51.81;101368.88;5081564;28;20032;-71
2022/05/07 11:34:31;;;;;;;2.47;1.00;;;;;;;22.59;51.44;101374.38;5068104;28;20038;-71
2022/05/07 11:37:08;;;;;;;3.30;1.02;;;;;;;22.77;51.53;101364.47;5079627;28;20035;-71
2022/05/07 11:39:34;;;;;;;3.08;0.80;;;;;;;22.93;51.26;101361.72;5085828;28;20050;-71
2022/05/07 11:41:59;;;;;;;1.67;1.02;;;;;;;23.00;50.25;101358.31;5101021;28;20031;-71